createdAt,value
2018-09-27T00:00:51.621Z,10.20
2018-09-27T00:03:20.938Z,10.10
2018-09-27T00:05:50.468Z,10.10
2018-09-27T00:08:19.817Z,10.10
2018-09-27T00:10:48.958Z,10.10
2018-09-27T00:13:18.097Z,10.00
2018-09-27T00:15:47.871Z,10.00
2018-09-27T00:18:16.843Z,10.00
2018-09-27T00:20:46.246Z,10.00
2018-09-27T00:23:15.813Z,10.00
2018-09-27T00:25:45.706Z,9.90
2018-09-27T00:28:15.154Z,9.90
2018-09-27T00:30:44.491Z,9.90
2018-09-27T00:33:13.670Z,9.90
2018-09-27T00:35:43.112Z,9.90
2018-09-27T00:38:12.767Z,9.90
2018-09-27T00:40:42.142Z,9.80
2018-09-27T00:43:11.782Z,9.80
2018-09-27T00:45:44.422Z,9.80
2018-09-27T00:48:16.154Z,9.80
2018-09-27T00:50:47.420Z,9.80
2018-09-27T00:53:17.081Z,9.80
2018-09-27T00:55:46.396Z,9.70
2018-09-27T00:58:15.752Z,9.70
2018-09-27T01:00:45.589Z,9.70
2018-09-27T01:03:14.499Z,9.60
2018-09-27T01:05:43.686Z,9.60
2018-09-27T01:08:12.879Z,9.60
2018-09-27T01:10:42.254Z,9.60
2018-09-27T01:13:11.335Z,9.60
2018-09-27T01:15:40.988Z,9.60
2018-09-27T01:18:10.385Z,9.60
2018-09-27T01:20:39.694Z,9.50
2018-09-27T01:23:08.585Z,9.50
2018-09-27T01:25:38.145Z,9.50
2018-09-27T01:28:07.354Z,9.40
2018-09-27T01:30:36.929Z,9.40
2018-09-27T01:33:06.265Z,9.40
2018-09-27T01:35:40.038Z,9.40
2018-09-27T01:38:09.812Z,9.40
2018-09-27T01:40:39.401Z,9.30
2018-09-27T01:43:08.853Z,9.30
2018-09-27T01:45:39.020Z,9.30
2018-09-27T01:48:08.482Z,9.30
2018-09-27T01:50:38.378Z,9.20
2018-09-27T01:53:07.898Z,9.20
2018-09-27T01:55:37.335Z,9.20
2018-09-27T01:58:06.900Z,9.20
2018-09-27T02:00:36.881Z,9.20
2018-09-27T02:03:06.751Z,9.20
2018-09-27T02:05:36.200Z,9.20
2018-09-27T02:08:05.603Z,9.20
2018-09-27T02:10:35.669Z,9.20
2018-09-27T02:13:05.156Z,9.10
2018-09-27T02:15:34.592Z,9.10
2018-09-27T02:18:04.153Z,9.10
2018-09-27T02:20:33.773Z,9.20
2018-09-27T02:23:03.610Z,9.20
2018-09-27T02:25:33.731Z,9.20
2018-09-27T02:28:03.211Z,9.10
2018-09-27T02:30:32.438Z,9.10
2018-09-27T02:33:01.702Z,9.00
2018-09-27T02:35:31.720Z,9.00
2018-09-27T02:38:00.979Z,9.00
2018-09-27T02:40:30.312Z,9.00
2018-09-27T02:43:00.064Z,9.00
2018-09-27T02:45:29.634Z,9.00
2018-09-27T02:47:59.231Z,9.00
2018-09-27T02:50:30.122Z,9.00
2018-09-27T02:52:59.732Z,9.00
2018-09-27T02:55:29.364Z,8.90
2018-09-27T02:57:58.819Z,8.90
2018-09-27T03:00:28.550Z,9.00
2018-09-27T03:02:57.821Z,8.90
2018-09-27T03:05:27.707Z,8.90
2018-09-27T03:07:57.173Z,9.00
2018-09-27T03:10:26.787Z,8.90
2018-09-27T03:12:56.140Z,8.90
2018-09-27T03:15:25.783Z,8.90
2018-09-27T03:17:55.342Z,8.90
2018-09-27T03:20:24.870Z,8.90
2018-09-27T03:22:54.498Z,8.90
2018-09-27T03:25:23.793Z,8.80
2018-09-27T03:27:53.179Z,8.80
2018-09-27T03:30:22.759Z,8.80
2018-09-27T03:32:52.398Z,8.80
2018-09-27T03:35:22.053Z,8.80
2018-09-27T03:37:51.440Z,8.80
2018-09-27T03:40:22.806Z,8.80
2018-09-27T03:42:51.930Z,8.80
2018-09-27T03:45:23.296Z,8.70
2018-09-27T03:47:52.765Z,8.70
2018-09-27T03:50:22.388Z,8.70
2018-09-27T03:52:52.225Z,8.70
2018-09-27T03:55:21.414Z,8.70
2018-09-27T03:57:50.540Z,8.70
2018-09-27T04:00:20.287Z,8.70
2018-09-27T04:02:49.500Z,8.70
2018-09-27T04:05:18.377Z,8.70
2018-09-27T04:07:47.537Z,8.70
2018-09-27T04:10:18.366Z,8.70
2018-09-27T04:12:47.467Z,8.70
2018-09-27T04:15:17.529Z,8.70
2018-09-27T04:17:46.692Z,8.60
2018-09-27T04:20:15.794Z,8.60
2018-09-27T04:22:45.113Z,8.60
2018-09-27T04:25:14.572Z,8.60
2018-09-27T04:27:44.172Z,8.60
2018-09-27T04:30:13.215Z,8.60
2018-09-27T04:32:42.291Z,8.60
2018-09-27T04:35:11.619Z,8.60
2018-09-27T04:37:41.191Z,8.50
2018-09-27T04:40:10.640Z,8.50
2018-09-27T04:42:39.895Z,8.40
2018-09-27T04:45:09.510Z,8.40
2018-09-27T04:47:39.147Z,8.30
2018-09-27T04:50:09.258Z,8.30
2018-09-27T04:52:42.140Z,8.30
2018-09-27T04:55:11.912Z,8.30
2018-09-27T04:57:41.292Z,8.30
2018-09-27T05:00:10.946Z,8.30
2018-09-27T05:02:40.425Z,8.30
2018-09-27T05:05:10.252Z,8.20
2018-09-27T05:07:40.053Z,8.20
2018-09-27T05:10:10.472Z,8.20
2018-09-27T05:12:39.861Z,8.20
2018-09-27T05:15:09.564Z,8.20
2018-09-27T05:17:39.244Z,8.30
2018-09-27T05:20:08.824Z,8.30
2018-09-27T05:22:38.219Z,8.40
2018-09-27T05:25:09.187Z,8.60
2018-09-27T05:27:38.767Z,8.70
2018-09-27T05:30:08.738Z,8.80
2018-09-27T05:32:37.721Z,8.80
2018-09-27T05:35:06.731Z,8.80
2018-09-27T05:37:35.981Z,8.80
2018-09-27T05:40:05.567Z,8.80
2018-09-27T05:42:35.277Z,8.80
2018-09-27T05:45:05.039Z,8.70
2018-09-27T05:47:34.541Z,8.60
2018-09-27T05:50:04.315Z,8.60
2018-09-27T05:52:34.056Z,8.60
2018-09-27T05:55:03.546Z,8.60
2018-09-27T05:57:33.134Z,8.60
2018-09-27T06:00:02.191Z,8.60
2018-09-27T06:02:32.021Z,8.60
2018-09-27T06:05:02.201Z,8.60
2018-09-27T06:07:31.614Z,8.60
2018-09-27T06:10:01.353Z,8.70
2018-09-27T06:12:30.477Z,8.70
2018-09-27T06:15:00.254Z,8.60
2018-09-27T06:17:29.606Z,8.60
2018-09-27T06:19:59.184Z,8.70
2018-09-27T06:22:28.337Z,8.70
2018-09-27T06:24:57.452Z,8.70
2018-09-27T06:27:26.751Z,8.80
2018-09-27T06:29:56.744Z,8.80
2018-09-27T06:32:26.492Z,8.90
2018-09-27T06:34:55.671Z,8.90
2018-09-27T06:37:25.140Z,8.90
2018-09-27T06:39:55.287Z,9.00
2018-09-27T06:42:24.817Z,9.00
2018-09-27T06:44:53.888Z,9.10
2018-09-27T06:47:23.803Z,9.10
2018-09-27T06:49:53.235Z,9.20
2018-09-27T06:52:22.629Z,9.20
2018-09-27T06:54:51.924Z,9.20
2018-09-27T06:57:21.575Z,9.30
2018-09-27T06:59:51.212Z,9.30
2018-09-27T07:02:21.177Z,9.40
2018-09-27T07:04:50.269Z,9.40
2018-09-27T07:07:19.475Z,9.40
2018-09-27T07:09:53.935Z,9.50
2018-09-27T07:12:23.549Z,9.50
2018-09-27T07:14:52.737Z,9.60
2018-09-27T07:17:22.974Z,9.70
2018-09-27T07:19:52.106Z,9.80
2018-09-27T07:22:21.429Z,9.90
2018-09-27T07:24:50.404Z,10.00
2018-09-27T07:27:20.100Z,10.10
2018-09-27T07:29:49.144Z,10.10
2018-09-27T07:32:18.431Z,10.20
2018-09-27T07:34:47.717Z,10.40
2018-09-27T07:37:17.255Z,10.60
2018-09-27T07:39:46.708Z,10.70
2018-09-27T07:42:16.132Z,10.80
2018-09-27T07:44:45.939Z,10.80
2018-09-27T07:47:15.976Z,10.90
2018-09-27T07:49:45.085Z,11.00
2018-09-27T07:52:15.292Z,11.10
2018-09-27T07:54:44.452Z,11.20
2018-09-27T07:57:14.446Z,11.30
2018-09-27T07:59:43.604Z,11.40
2018-09-27T08:02:13.281Z,11.50
2018-09-27T08:04:42.732Z,11.60
2018-09-27T08:07:12.414Z,11.70
2018-09-27T08:09:41.728Z,11.80
2018-09-27T08:12:10.784Z,11.80
2018-09-27T08:14:39.980Z,11.80
2018-09-27T08:17:09.393Z,12.00
2018-09-27T08:19:38.956Z,12.00
2018-09-27T08:22:08.257Z,12.10
2018-09-27T08:24:38.026Z,12.20
2018-09-27T08:27:07.297Z,12.20
2018-09-27T08:29:36.358Z,12.20
2018-09-27T08:32:06.052Z,12.30
2018-09-27T08:34:35.155Z,12.40
2018-09-27T08:37:04.132Z,12.60
2018-09-27T08:39:33.201Z,12.70
2018-09-27T08:42:02.728Z,13.00
2018-09-27T08:44:32.104Z,13.20
2018-09-27T08:47:01.377Z,13.40
2018-09-27T08:49:30.348Z,13.60
2018-09-27T08:52:00.082Z,13.70
2018-09-27T08:54:29.189Z,13.90
2018-09-27T08:56:58.812Z,14.00
2018-09-27T08:59:28.199Z,14.20
2018-09-27T09:01:58.026Z,14.30
2018-09-27T09:04:27.456Z,14.40
2018-09-27T09:06:57.376Z,14.40
2018-09-27T09:09:27.392Z,14.40
2018-09-27T09:11:56.415Z,14.40
2018-09-27T09:14:25.520Z,14.50
2018-09-27T09:16:55.829Z,14.50
2018-09-27T09:19:24.955Z,14.50
2018-09-27T09:21:54.054Z,14.60
2018-09-27T09:24:23.508Z,14.60
2018-09-27T09:26:52.817Z,14.70
2018-09-27T09:29:21.951Z,14.80
2018-09-27T09:31:53.811Z,15.00
2018-09-27T09:34:23.061Z,15.10
2018-09-27T09:36:52.195Z,15.20
2018-09-27T09:39:21.771Z,15.30
2018-09-27T09:41:51.306Z,15.40
2018-09-27T09:44:20.685Z,15.40
2018-09-27T09:46:49.537Z,15.50
2018-09-27T09:49:19.019Z,15.60
2018-09-27T09:51:48.086Z,15.70
2018-09-27T09:54:18.339Z,15.80
2018-09-27T09:56:47.785Z,15.80
2018-09-27T09:59:16.919Z,15.90
2018-09-27T10:01:46.353Z,15.90
2018-09-27T10:04:15.503Z,16.10
2018-09-27T10:06:44.450Z,16.20
2018-09-27T10:09:13.617Z,16.20
2018-09-27T10:11:42.644Z,16.30
2018-09-27T10:14:12.167Z,16.30
2018-09-27T10:16:41.556Z,16.40
2018-09-27T10:19:17.189Z,16.50
2018-09-27T10:21:52.484Z,16.60
2018-09-27T10:24:21.368Z,16.70
2018-09-27T10:26:51.755Z,16.80
2018-09-27T10:29:22.352Z,16.90
2018-09-27T10:31:51.341Z,16.80
2018-09-27T10:34:20.905Z,16.90
2018-09-27T10:36:50.926Z,17.10
2018-09-27T10:39:21.243Z,17.20
2018-09-27T10:41:50.550Z,17.40
2018-09-27T10:44:19.371Z,17.50
2018-09-27T10:46:49.016Z,17.50
2018-09-27T10:49:18.440Z,17.60
2018-09-27T10:51:48.777Z,17.60
2018-09-27T10:54:17.563Z,17.80
2018-09-27T10:56:46.518Z,17.90
2018-09-27T10:59:17.285Z,18.00
2018-09-27T11:01:48.174Z,18.10
2018-09-27T11:04:18.395Z,18.20
2018-09-27T11:06:47.402Z,18.20
2018-09-27T11:09:16.653Z,18.20
2018-09-27T11:11:45.788Z,18.30
2018-09-27T11:14:14.847Z,18.40
2018-09-27T11:16:43.825Z,18.40
2018-09-27T11:19:14.437Z,18.40
2018-09-27T11:21:44.612Z,18.50
2018-09-27T11:24:16.630Z,18.60
2018-09-27T11:26:45.463Z,18.60
2018-09-27T11:29:19.838Z,18.70
2018-09-27T11:31:54.717Z,18.80
2018-09-27T11:34:23.923Z,19.00
2018-09-27T11:36:53.078Z,19.20
2018-09-27T11:39:23.679Z,19.20
2018-09-27T11:41:52.562Z,19.30
2018-09-27T11:44:21.585Z,19.40
2018-09-27T11:46:50.919Z,19.50
2018-09-27T11:49:20.111Z,19.50
2018-09-27T11:51:49.144Z,19.50
2018-09-27T11:54:18.703Z,19.50
2018-09-27T11:56:47.728Z,19.60
2018-09-27T11:59:17.475Z,19.60
2018-09-27T12:01:46.363Z,19.70
2018-09-27T12:04:15.935Z,19.70
2018-09-27T12:06:45.576Z,19.70
2018-09-27T12:09:16.323Z,19.60
2018-09-27T12:11:49.750Z,19.60
2018-09-27T12:14:19.844Z,19.70
2018-09-27T12:16:49.072Z,19.80
2018-09-27T12:19:18.765Z,19.90
2018-09-27T12:21:47.823Z,20.00
2018-09-27T12:24:18.120Z,20.00
2018-09-27T12:26:47.207Z,20.00
2018-09-27T12:29:16.954Z,20.10
2018-09-27T12:31:46.850Z,20.10
2018-09-27T12:34:16.106Z,20.20
2018-09-27T12:36:45.089Z,20.20
2018-09-27T12:39:14.069Z,20.20
2018-09-27T12:41:44.085Z,20.20
2018-09-27T12:44:13.890Z,20.20
2018-09-27T12:46:43.680Z,20.30
2018-09-27T12:49:13.050Z,20.20
2018-09-27T12:51:42.712Z,20.30
2018-09-27T12:54:12.511Z,20.50
2018-09-27T12:56:54.961Z,20.60
2018-09-27T12:59:24.961Z,20.60
2018-09-27T13:01:54.237Z,20.60
2018-09-27T13:04:23.249Z,20.60
2018-09-27T13:06:52.414Z,20.60
2018-09-27T13:09:21.594Z,20.70
2018-09-27T13:11:51.346Z,20.80
2018-09-27T13:14:20.341Z,20.80
2018-09-27T13:16:49.371Z,20.90
2018-09-27T13:19:18.373Z,20.90
2018-09-27T13:21:47.494Z,21.00
2018-09-27T13:24:16.277Z,20.90
2018-09-27T13:26:46.528Z,21.00
2018-09-27T13:29:15.602Z,21.00
2018-09-27T13:31:44.919Z,21.00
2018-09-27T13:34:14.065Z,21.10
2018-09-27T13:36:43.525Z,21.10
2018-09-27T13:39:12.808Z,21.10
2018-09-27T13:41:41.812Z,21.10
2018-09-27T13:44:11.163Z,21.20
2018-09-27T13:46:40.173Z,21.30
2018-09-27T13:49:09.671Z,21.40
2018-09-27T13:51:38.628Z,21.50
2018-09-27T13:54:07.795Z,21.60
2018-09-27T13:56:36.937Z,21.70
2018-09-27T13:59:07.594Z,21.80
2018-09-27T14:01:36.867Z,21.90
2018-09-27T14:04:06.176Z,22.00
2018-09-27T14:06:35.800Z,22.00
2018-09-27T14:09:06.830Z,22.00
2018-09-27T14:11:36.625Z,22.00
2018-09-27T14:14:07.786Z,21.90
2018-09-27T14:16:37.413Z,21.90
2018-09-27T14:19:07.550Z,22.00
2018-09-27T14:21:36.725Z,22.10
2018-09-27T14:24:08.324Z,22.10
2018-09-27T14:26:37.835Z,22.00
2018-09-27T14:29:07.496Z,22.20
2018-09-27T14:31:36.984Z,22.20
2018-09-27T14:34:07.032Z,22.30
2018-09-27T14:36:36.552Z,22.30
2018-09-27T14:39:09.065Z,22.30
2018-09-27T14:41:38.710Z,22.40
2018-09-27T14:44:09.447Z,22.40
2018-09-27T14:46:39.235Z,22.40
2018-09-27T14:49:09.299Z,22.40
2018-09-27T14:51:40.006Z,22.40
2018-09-27T14:54:10.834Z,22.40
2018-09-27T14:56:40.884Z,22.40
2018-09-27T14:59:11.064Z,22.50
2018-09-27T15:01:40.614Z,22.50
2018-09-27T15:04:09.927Z,22.60
2018-09-27T15:06:39.449Z,22.60
2018-09-27T15:09:10.866Z,22.50
2018-09-27T15:11:44.875Z,22.50
2018-09-27T15:14:15.845Z,22.40
2018-09-27T15:16:48.602Z,22.50
2018-09-27T15:19:17.210Z,22.60
2018-09-27T15:21:48.967Z,22.70
2018-09-27T15:24:21.049Z,22.70
2018-09-27T15:26:51.014Z,22.70
2018-09-27T15:29:20.335Z,22.70
2018-09-27T15:31:50.105Z,22.70
2018-09-27T15:34:20.120Z,22.70
2018-09-27T15:36:50.570Z,22.70
2018-09-27T15:39:19.927Z,22.70
2018-09-27T15:41:52.503Z,22.70
2018-09-27T15:44:22.291Z,22.70
2018-09-27T15:47:03.849Z,22.70
2018-09-27T15:49:33.360Z,22.70
2018-09-27T15:52:03.699Z,22.70
2018-09-27T15:54:33.003Z,22.60
2018-09-27T15:57:03.585Z,22.60
2018-09-27T15:59:32.678Z,22.60
2018-09-27T16:02:01.823Z,22.50
2018-09-27T16:04:31.675Z,22.50
2018-09-27T16:07:13.382Z,22.50
2018-09-27T16:09:42.024Z,22.40
2018-09-27T16:53:05.156Z,21.40
2018-09-27T16:55:34.245Z,21.30
2018-09-27T16:58:03.608Z,21.10
2018-09-27T17:00:33.374Z,21.00
2018-09-27T17:03:03.828Z,20.90
2018-09-27T17:05:33.357Z,20.80
2018-09-27T17:08:02.930Z,20.70
2018-09-27T17:10:33.549Z,20.60
2018-09-27T17:13:04.587Z,20.50
2018-09-27T17:15:34.252Z,20.40
2018-09-27T17:18:03.522Z,20.30
2018-09-27T17:20:33.290Z,20.20
2018-09-27T17:23:02.538Z,20.00
2018-09-27T17:25:31.873Z,19.90
2018-09-27T17:28:01.109Z,19.70
2018-09-27T17:30:30.308Z,19.60
2018-09-27T17:32:59.744Z,19.50
2018-09-27T17:35:29.187Z,19.30
2018-09-27T17:37:58.554Z,19.10
2018-09-27T17:40:28.019Z,19.00
2018-09-27T17:42:57.416Z,18.80
2018-09-27T17:45:27.499Z,18.60
2018-09-27T17:47:58.372Z,18.50
2018-09-27T17:50:27.865Z,18.30
2018-09-27T17:52:57.518Z,18.20
2018-09-27T17:55:27.050Z,18.00
2018-09-27T17:57:56.702Z,17.90
2018-09-27T18:00:27.042Z,17.80
2018-09-27T18:02:56.468Z,17.70
2018-09-27T18:05:26.652Z,17.60
2018-09-27T18:07:56.936Z,17.50
2018-09-27T18:10:26.992Z,17.40
2018-09-27T18:12:58.823Z,17.30
2018-09-27T18:15:29.020Z,17.20
2018-09-27T18:17:58.516Z,17.20
2018-09-27T18:20:28.366Z,17.10
2018-09-27T18:22:57.772Z,17.00
2018-09-27T18:25:27.537Z,17.00
2018-09-27T18:27:57.190Z,17.00
2018-09-27T18:30:27.307Z,16.90
2018-09-27T18:32:56.962Z,16.80
2018-09-27T18:35:26.835Z,16.80
2018-09-27T18:37:56.587Z,16.70
2018-09-27T18:40:27.545Z,16.60
2018-09-27T18:43:01.519Z,16.50
2018-09-27T18:45:31.187Z,16.50
2018-09-27T18:48:00.349Z,16.40
2018-09-27T18:50:29.911Z,16.30
2018-09-27T18:52:59.817Z,16.30
2018-09-27T18:55:28.975Z,16.20
2018-09-27T18:57:59.638Z,16.20
2018-09-27T19:00:29.295Z,16.10
2018-09-27T19:02:59.749Z,16.00
2018-09-27T19:05:29.103Z,16.00
2018-09-27T19:07:58.917Z,16.00
2018-09-27T19:10:28.337Z,15.90
2018-09-27T19:12:58.022Z,15.80
2018-09-27T19:15:27.909Z,15.70
2018-09-27T19:17:58.067Z,15.60
2018-09-27T19:20:27.286Z,15.50
2018-09-27T19:22:57.513Z,15.50
2018-09-27T19:25:27.132Z,15.40
2018-09-27T19:27:57.063Z,15.40
2018-09-27T19:30:27.105Z,15.40
2018-09-27T19:32:57.448Z,15.40
2018-09-27T19:35:27.314Z,15.40
2018-09-27T19:37:57.594Z,15.40
2018-09-27T19:40:27.561Z,15.40
2018-09-27T19:42:57.542Z,15.40
2018-09-27T19:45:27.109Z,15.40
2018-09-27T19:47:56.901Z,15.30
2018-09-27T19:50:26.266Z,15.30
2018-09-27T19:52:55.931Z,15.20
2018-09-27T19:55:26.315Z,15.20
2018-09-27T19:57:56.082Z,15.10
2018-09-27T20:00:25.853Z,15.10
2018-09-27T20:02:55.608Z,15.00
2018-09-27T20:05:25.702Z,15.00
2018-09-27T20:07:55.247Z,14.90
2018-09-27T20:10:24.872Z,14.90
2018-09-27T20:12:54.309Z,14.80
2018-09-27T20:15:23.743Z,14.70
2018-09-27T20:17:53.215Z,14.70
2018-09-27T20:20:22.790Z,14.70
2018-09-27T20:22:52.405Z,14.60
2018-09-27T20:25:21.618Z,14.60
2018-09-27T20:27:51.090Z,14.60
2018-09-27T20:30:20.756Z,14.60
2018-09-27T20:32:50.903Z,14.60
2018-09-27T20:35:20.682Z,14.60
2018-09-27T20:37:50.229Z,14.50
2018-09-27T20:40:19.815Z,14.50
2018-09-27T20:42:50.250Z,14.50
2018-09-27T20:45:19.782Z,14.50
2018-09-27T20:47:49.139Z,14.50
2018-09-27T20:50:18.636Z,14.50
2018-09-27T20:52:48.392Z,14.50
2018-09-27T20:55:19.101Z,14.50
2018-09-27T20:57:49.767Z,14.40
2018-09-27T21:00:19.684Z,14.40
2018-09-27T21:02:50.041Z,14.40
2018-09-27T21:05:19.208Z,14.40
2018-09-27T21:07:49.051Z,14.30
2018-09-27T21:10:19.317Z,14.30
2018-09-27T21:12:50.559Z,14.20
2018-09-27T21:15:20.368Z,14.10
2018-09-27T21:17:51.376Z,14.00
2018-09-27T21:20:20.869Z,14.00
2018-09-27T21:22:50.680Z,13.90
2018-09-27T21:25:20.950Z,13.90
2018-09-27T21:27:52.068Z,13.80
2018-09-27T21:30:21.238Z,13.70
2018-09-27T21:32:51.337Z,13.60
2018-09-27T21:35:21.459Z,13.60
2018-09-27T21:37:51.187Z,13.60
2018-09-27T21:40:21.294Z,13.50
2018-09-27T21:42:52.218Z,13.40
2018-09-27T21:45:22.004Z,13.40
2018-09-27T21:47:51.690Z,13.30
2018-09-27T21:50:21.736Z,13.20
2018-09-27T21:52:51.910Z,13.20
2018-09-27T21:55:21.231Z,13.10
2018-09-27T21:57:52.421Z,13.10
2018-09-27T22:00:22.104Z,13.00
2018-09-27T22:02:52.200Z,12.90
2018-09-27T22:05:22.050Z,12.90
2018-09-27T22:07:52.179Z,12.80
2018-09-27T22:10:21.741Z,12.80
2018-09-27T22:12:51.600Z,12.80
2018-09-27T22:15:20.766Z,12.70
2018-09-27T22:17:50.226Z,12.70
2018-09-27T22:20:19.928Z,12.70
2018-09-27T22:22:49.145Z,12.60
2018-09-27T22:25:18.911Z,12.60
2018-09-27T22:27:48.787Z,12.50
2018-09-27T22:30:19.520Z,12.50
2018-09-27T22:32:49.302Z,12.50
2018-09-27T22:35:18.671Z,12.40
2018-09-27T22:37:48.485Z,12.40
2018-09-27T22:40:19.684Z,12.40
2018-09-27T22:42:48.934Z,12.30
2018-09-27T22:45:19.084Z,12.30
2018-09-27T22:47:48.858Z,12.30
2018-09-27T22:50:18.725Z,12.30
2018-09-27T22:52:52.556Z,12.20
2018-09-27T22:55:22.262Z,12.20
2018-09-27T22:57:51.879Z,12.20
2018-09-27T23:00:22.091Z,12.10
2018-09-27T23:02:52.350Z,12.10
2018-09-27T23:05:21.932Z,12.10
2018-09-27T23:07:53.049Z,12.00
2018-09-27T23:10:23.091Z,12.00
2018-09-27T23:12:53.273Z,11.90
2018-09-27T23:15:22.902Z,11.90
2018-09-27T23:17:52.779Z,11.90
2018-09-27T23:20:22.867Z,12.00
2018-09-27T23:22:53.426Z,12.00
2018-09-27T23:25:22.873Z,11.90
2018-09-27T23:27:52.801Z,11.90
2018-09-27T23:30:22.255Z,11.80
2018-09-27T23:32:52.020Z,11.80
2018-09-27T23:35:22.266Z,11.80
2018-09-27T23:37:52.156Z,11.80
2018-09-27T23:40:21.438Z,11.70
2018-09-27T23:42:50.985Z,11.70
2018-09-27T23:45:20.586Z,11.70
2018-09-27T23:47:50.789Z,11.70
2018-09-27T23:50:20.347Z,11.70
2018-09-27T23:52:49.631Z,11.70
2018-09-27T23:55:19.432Z,11.70
2018-09-27T23:57:48.943Z,11.70
